sensor_id;sensor_type;location;lat;lon;timestamp;pressure;altitude;pressure_sealevel;temperature;humidity
84049;BME280;74136;51.684;7.862;2024-02-26T00:01:00;99328.94;;;3.63;79.11
84049;BME280;74136;51.684;7.862;2024-02-26T00:03:26;99330.00;;;3.62;79.50
84049;BME280;74136;51.684;7.862;2024-02-26T00:05:52;99333.56;;;3.62;78.79
84049;BME280;74136;51.684;7.862;2024-02-26T00:08:19;99330.00;;;3.62;79.19
84049;BME280;74136;51.684;7.862;2024-02-26T00:10:45;99316.41;;;3.62;79.29
84049;BME280;74136;51.684;7.862;2024-02-26T00:13:11;99332.50;;;3.63;79.48
84049;BME280;74136;51.684;7.862;2024-02-26T00:15:37;99327.44;;;3.67;78.95
84049;BME280;74136;51.684;7.862;2024-02-26T00:18:04;99324.06;;;3.72;79.18
84049;BME280;74136;51.684;7.862;2024-02-26T00:20:30;99325.25;;;3.76;78.68
84049;BME280;74136;51.684;7.862;2024-02-26T00:22:56;99327.75;;;3.77;78.42
84049;BME280;74136;51.684;7.862;2024-02-26T00:25:22;99322.31;;;3.77;78.32
84049;BME280;74136;51.684;7.862;2024-02-26T00:27:48;99318.53;;;3.78;78.13
84049;BME280;74136;51.684;7.862;2024-02-26T00:30:15;99312.03;;;3.79;78.30
84049;BME280;74136;51.684;7.862;2024-02-26T00:32:41;99313.72;;;3.80;78.49
84049;BME280;74136;51.684;7.862;2024-02-26T00:35:07;99309.09;;;3.81;77.90
84049;BME280;74136;51.684;7.862;2024-02-26T00:37:35;99307.00;;;3.83;77.35
84049;BME280;74136;51.684;7.862;2024-02-26T00:40:01;99304.28;;;3.83;77.55
84049;BME280;74136;51.684;7.862;2024-02-26T00:42:28;99305.94;;;3.84;77.67
84049;BME280;74136;51.684;7.862;2024-02-26T00:44:54;99305.72;;;3.85;77.09
84049;BME280;74136;51.684;7.862;2024-02-26T00:47:20;99300.63;;;3.89;76.86
84049;BME280;74136;51.684;7.862;2024-02-26T00:49:46;99287.66;;;3.91;76.85
84049;BME280;74136;51.684;7.862;2024-02-26T00:52:13;99286.97;;;3.95;76.77
84049;BME280;74136;51.684;7.862;2024-02-26T00:54:39;99290.91;;;3.99;76.85
84049;BME280;74136;51.684;7.862;2024-02-26T00:57:05;99297.56;;;4.03;75.86
84049;BME280;74136;51.684;7.862;2024-02-26T00:59:32;99295.81;;;4.09;76.08
84049;BME280;74136;51.684;7.862;2024-02-26T01:01:58;99281.75;;;4.12;75.26
84049;BME280;74136;51.684;7.862;2024-02-26T01:04:25;99284.03;;;4.15;75.02
84049;BME280;74136;51.684;7.862;2024-02-26T01:06:52;99291.16;;;4.16;75.66
84049;BME280;74136;51.684;7.862;2024-02-26T01:09:18;99295.53;;;4.17;75.00
84049;BME280;74136;51.684;7.862;2024-02-26T01:11:44;99297.78;;;4.20;75.06
84049;BME280;74136;51.684;7.862;2024-02-26T01:14:11;99286.44;;;4.23;75.04
84049;BME280;74136;51.684;7.862;2024-02-26T01:16:37;99290.84;;;4.24;75.05
84049;BME280;74136;51.684;7.862;2024-02-26T01:19:03;99287.06;;;4.25;74.85
84049;BME280;74136;51.684;7.862;2024-02-26T01:21:29;99281.16;;;4.28;74.81
84049;BME280;74136;51.684;7.862;2024-02-26T01:23:56;99282.00;;;4.29;74.60
84049;BME280;74136;51.684;7.862;2024-02-26T01:26:22;99283.41;;;4.31;74.48
84049;BME280;74136;51.684;7.862;2024-02-26T01:28:48;99282.56;;;4.31;74.75
84049;BME280;74136;51.684;7.862;2024-02-26T01:31:14;99276.06;;;4.32;75.08
84049;BME280;74136;51.684;7.862;2024-02-26T01:33:41;99272.50;;;4.31;74.62
84049;BME280;74136;51.684;7.862;2024-02-26T01:36:07;99275.22;;;4.31;74.64
84049;BME280;74136;51.684;7.862;2024-02-26T01:38:33;99274.19;;;4.32;75.11
84049;BME280;74136;51.684;7.862;2024-02-26T01:40:59;99283.56;;;4.36;74.64
84049;BME280;74136;51.684;7.862;2024-02-26T01:43:25;99281.69;;;4.37;74.06
84049;BME280;74136;51.684;7.862;2024-02-26T01:45:52;99282.50;;;4.37;74.06
84049;BME280;74136;51.684;7.862;2024-02-26T01:48:18;99276.84;;;4.39;74.67
84049;BME280;74136;51.684;7.862;2024-02-26T01:50:44;99273.41;;;4.44;74.15
84049;BME280;74136;51.684;7.862;2024-02-26T01:53:10;99283.63;;;4.48;74.03
84049;BME280;74136;51.684;7.862;2024-02-26T01:55:37;99285.53;;;4.48;73.61
84049;BME280;74136;51.684;7.862;2024-02-26T01:58:04;99288.03;;;4.49;73.89
84049;BME280;74136;51.684;7.862;2024-02-26T02:00:31;99288.84;;;4.50;74.20
84049;BME280;74136;51.684;7.862;2024-02-26T02:02:57;99287.41;;;4.47;74.45
84049;BME280;74136;51.684;7.862;2024-02-26T02:05:24;99294.53;;;4.48;73.77
84049;BME280;74136;51.684;7.862;2024-02-26T02:07:51;99292.25;;;4.45;73.73
84049;BME280;74136;51.684;7.862;2024-02-26T02:10:18;99304.19;;;4.44;74.71
84049;BME280;74136;51.684;7.862;2024-02-26T02:12:48;99314.75;;;4.41;74.08
84049;BME280;74136;51.684;7.862;2024-02-26T02:15:15;99309.03;;;4.42;74.57
84049;BME280;74136;51.684;7.862;2024-02-26T02:17:41;99303.00;;;4.40;74.71
84049;BME280;74136;51.684;7.862;2024-02-26T02:20:16;99308.25;;;4.42;74.52
84049;BME280;74136;51.684;7.862;2024-02-26T02:22:45;99313.06;;;4.39;74.90
84049;BME280;74136;51.684;7.862;2024-02-26T02:25:12;99312.03;;;4.41;74.70
84049;BME280;74136;51.684;7.862;2024-02-26T02:27:39;99310.34;;;4.39;74.83
84049;BME280;74136;51.684;7.862;2024-02-26T02:30:07;99304.28;;;4.37;75.18
84049;BME280;74136;51.684;7.862;2024-02-26T02:32:34;99302.03;;;4.34;74.63
84049;BME280;74136;51.684;7.862;2024-02-26T02:35:00;99301.19;;;4.34;75.43
84049;BME280;74136;51.684;7.862;2024-02-26T02:37:26;99309.34;;;4.34;75.36
84049;BME280;74136;51.684;7.862;2024-02-26T02:39:53;99302.03;;;4.34;74.90
84049;BME280;74136;51.684;7.862;2024-02-26T02:42:20;99304.75;;;4.34;74.96
84049;BME280;74136;51.684;7.862;2024-02-26T02:44:47;99299.28;;;4.34;74.95
84049;BME280;74136;51.684;7.862;2024-02-26T02:47:13;99293.84;;;4.34;75.33
84049;BME280;74136;51.684;7.862;2024-02-26T02:49:39;99295.75;;;4.34;75.58
84049;BME280;74136;51.684;7.862;2024-02-26T02:52:06;99296.34;;;4.36;74.49
84049;BME280;74136;51.684;7.862;2024-02-26T02:54:32;99297.19;;;4.36;74.82
84049;BME280;74136;51.684;7.862;2024-02-26T02:56:58;99296.34;;;4.36;74.93
84049;BME280;74136;51.684;7.862;2024-02-26T02:59:25;99299.69;;;4.38;74.76
84049;BME280;74136;51.684;7.862;2024-02-26T03:01:51;99301.13;;;4.41;74.59
84049;BME280;74136;51.684;7.862;2024-02-26T03:04:18;99308.81;;;4.44;73.95
84049;BME280;74136;51.684;7.862;2024-02-26T03:06:44;99311.69;;;4.49;73.98
84049;BME280;74136;51.684;7.862;2024-02-26T03:09:10;99309.94;;;4.54;73.68
84049;BME280;74136;51.684;7.862;2024-02-26T03:11:36;99320.16;;;4.59;73.06
84049;BME280;74136;51.684;7.862;2024-02-26T03:14:03;99312.00;;;4.59;73.15
84049;BME280;74136;51.684;7.862;2024-02-26T03:16:29;99319.09;;;4.60;73.43
84049;BME280;74136;51.684;7.862;2024-02-26T03:18:55;99323.50;;;4.61;73.26
84049;BME280;74136;51.684;7.862;2024-02-26T03:21:21;99324.09;;;4.63;73.14
84049;BME280;74136;51.684;7.862;2024-02-26T03:23:47;99325.78;;;4.64;73.26
84049;BME280;74136;51.684;7.862;2024-02-26T03:26:14;99332.84;;;4.65;73.02
84049;BME280;74136;51.684;7.862;2024-02-26T03:28:40;99324.22;;;4.68;72.37
84049;BME280;74136;51.684;7.862;2024-02-26T03:31:06;99327.56;;;4.70;72.85
84049;BME280;74136;51.684;7.862;2024-02-26T03:33:34;99326.28;;;4.72;72.96
84049;BME280;74136;51.684;7.862;2024-02-26T03:36:00;99324.63;;;4.71;72.30
84049;BME280;74136;51.684;7.862;2024-02-26T03:38:26;99333.75;;;4.77;72.53
84049;BME280;74136;51.684;7.862;2024-02-26T03:40:52;99337.31;;;4.78;72.09
84049;BME280;74136;51.684;7.862;2024-02-26T03:43:18;99329.97;;;4.78;72.60
84049;BME280;74136;51.684;7.862;2024-02-26T03:45:45;99338.97;;;4.79;72.20
84049;BME280;74136;51.684;7.862;2024-02-26T03:48:11;99343.38;;;4.80;71.88
84049;BME280;74136;51.684;7.862;2024-02-26T03:50:37;99343.97;;;4.82;72.52
84049;BME280;74136;51.684;7.862;2024-02-26T03:53:03;99345.03;;;4.81;72.48
84049;BME280;74136;51.684;7.862;2024-02-26T03:55:30;99348.59;;;4.81;72.53
84049;BME280;74136;51.684;7.862;2024-02-26T03:57:56;99347.75;;;4.81;72.17
84049;BME280;74136;51.684;7.862;2024-02-26T04:00:22;99348.59;;;4.81;72.63
84049;BME280;74136;51.684;7.862;2024-02-26T04:02:49;99348.81;;;4.80;72.37
84049;BME280;74136;51.684;7.862;2024-02-26T04:05:15;99353.59;;;4.84;71.97
84049;BME280;74136;51.684;7.862;2024-02-26T04:07:41;99359.03;;;4.84;71.63
84049;BME280;74136;51.684;7.862;2024-02-26T04:10:09;99364.00;;;4.87;72.43
84049;BME280;74136;51.684;7.862;2024-02-26T04:12:38;99363.19;;;4.87;72.13
84049;BME280;74136;51.684;7.862;2024-02-26T04:15:06;99358.56;;;4.87;72.29
84049;BME280;74136;51.684;7.862;2024-02-26T04:17:32;99365.47;;;4.90;72.09
84049;BME280;74136;51.684;7.862;2024-02-26T04:19:58;99361.91;;;4.89;72.76
84049;BME280;74136;51.684;7.862;2024-02-26T04:22:24;99362.97;;;4.88;73.23
84049;BME280;74136;51.684;7.862;2024-02-26T04:24:51;99359.88;;;4.85;72.95
84049;BME280;74136;51.684;7.862;2024-02-26T04:27:17;99354.66;;;4.83;73.37
84049;BME280;74136;51.684;7.862;2024-02-26T04:29:43;99363.88;;;4.82;73.58
84049;BME280;74136;51.684;7.862;2024-02-26T04:32:09;99354.28;;;4.80;74.04
84049;BME280;74136;51.684;7.862;2024-02-26T04:34:36;99355.78;;;4.75;74.30
84049;BME280;74136;51.684;7.862;2024-02-26T04:37:02;99348.09;;;4.72;75.49
84049;BME280;74136;51.684;7.862;2024-02-26T04:39:28;99350.03;;;4.65;75.85
84049;BME280;74136;51.684;7.862;2024-02-26T04:41:55;99356.63;;;4.58;76.74
84049;BME280;74136;51.684;7.862;2024-02-26T04:44:21;99349.97;;;4.54;76.72
84049;BME280;74136;51.684;7.862;2024-02-26T04:46:47;99354.00;;;4.51;77.25
84049;BME280;74136;51.684;7.862;2024-02-26T04:49:13;99346.50;;;4.47;77.57
84049;BME280;74136;51.684;7.862;2024-02-26T04:51:39;99344.44;;;4.42;77.63
84049;BME280;74136;51.684;7.862;2024-02-26T04:54:06;99345.75;;;4.39;78.52
84049;BME280;74136;51.684;7.862;2024-02-26T04:56:32;99360.44;;;4.38;78.71
84049;BME280;74136;51.684;7.862;2024-02-26T04:58:58;99348.09;;;4.36;78.97
84049;BME280;74136;51.684;7.862;2024-02-26T05:01:24;99354.59;;;4.35;78.91
84049;BME280;74136;51.684;7.862;2024-02-26T05:03:51;99355.44;;;4.35;79.41
84049;BME280;74136;51.684;7.862;2024-02-26T05:06:18;99352.94;;;4.34;79.24
84049;BME280;74136;51.684;7.862;2024-02-26T05:08:44;99353.16;;;4.32;79.65
84049;BME280;74136;51.684;7.862;2024-02-26T05:11:12;99352.56;;;4.30;79.49
84049;BME280;74136;51.684;7.862;2024-02-26T05:13:38;99344.00;;;4.27;80.15
84049;BME280;74136;51.684;7.862;2024-02-26T05:16:04;99349.25;;;4.28;79.24
84049;BME280;74136;51.684;7.862;2024-02-26T05:18:31;99347.56;;;4.27;79.35
84049;BME280;74136;51.684;7.862;2024-02-26T05:20:57;99351.13;;;4.28;79.52
84049;BME280;74136;51.684;7.862;2024-02-26T05:23:23;99356.34;;;4.29;79.06
84049;BME280;74136;51.684;7.862;2024-02-26T05:25:49;99356.34;;;4.29;79.81
84049;BME280;74136;51.684;7.862;2024-02-26T05:28:16;99360.34;;;4.27;79.12
84049;BME280;74136;51.684;7.862;2024-02-26T05:30:42;99362.03;;;4.28;79.05
84049;BME280;74136;51.684;7.862;2024-02-26T05:33:08;99354.91;;;4.27;79.76
84049;BME280;74136;51.684;7.862;2024-02-26T05:35:35;99354.06;;;4.26;80.09
84049;BME280;74136;51.684;7.862;2024-02-26T05:38:01;99351.19;;;4.21;80.16
84049;BME280;74136;51.684;7.862;2024-02-26T05:40:27;99352.63;;;4.24;79.43
84049;BME280;74136;51.684;7.862;2024-02-26T05:42:53;99357.22;;;4.23;79.89
84049;BME280;74136;51.684;7.862;2024-02-26T05:45:19;99372.53;;;4.24;79.97
84049;BME280;74136;51.684;7.862;2024-02-26T05:47:46;99370.41;;;4.26;79.09
84049;BME280;74136;51.684;7.862;2024-02-26T05:50:12;99367.47;;;4.28;79.32
84049;BME280;74136;51.684;7.862;2024-02-26T05:52:38;99367.81;;;4.31;78.97
84049;BME280;74136;51.684;7.862;2024-02-26T05:55:05;99376.38;;;4.35;78.44
84049;BME280;74136;51.684;7.862;2024-02-26T05:57:34;99372.59;;;4.36;78.70
84049;BME280;74136;51.684;7.862;2024-02-26T06:00:01;99378.44;;;4.39;79.01
84049;BME280;74136;51.684;7.862;2024-02-26T06:02:30;99377.84;;;4.37;78.12
84049;BME280;74136;51.684;7.862;2024-02-26T06:04:56;99383.66;;;4.41;78.34
84049;BME280;74136;51.684;7.862;2024-02-26T06:07:23;99384.50;;;4.42;78.16
84049;BME280;74136;51.684;7.862;2024-02-26T06:09:49;99390.75;;;4.42;78.32
84049;BME280;74136;51.684;7.862;2024-02-26T06:12:15;99392.66;;;4.42;78.11
84049;BME280;74136;51.684;7.862;2024-02-26T06:14:43;99395.63;;;4.40;78.21
84049;BME280;74136;51.684;7.862;2024-02-26T06:17:09;99405.69;;;4.39;78.37
84049;BME280;74136;51.684;7.862;2024-02-26T06:19:35;99407.78;;;4.37;78.57
84049;BME280;74136;51.684;7.862;2024-02-26T06:22:02;99427.28;;;4.34;79.19
84049;BME280;74136;51.684;7.862;2024-02-26T06:24:28;99434.00;;;4.32;80.07
84049;BME280;74136;51.684;7.862;2024-02-26T06:26:54;99433.44;;;4.30;79.55
84049;BME280;74136;51.684;7.862;2024-02-26T06:29:20;99436.81;;;4.25;80.04
84049;BME280;74136;51.684;7.862;2024-02-26T06:31:47;99439.97;;;4.22;79.88
84049;BME280;74136;51.684;7.862;2024-02-26T06:34:14;99443.97;;;4.20;79.14
84049;BME280;74136;51.684;7.862;2024-02-26T06:36:40;99437.72;;;4.19;79.47
84049;BME280;74136;51.684;7.862;2024-02-26T06:39:06;99443.16;;;4.19;79.71
84049;BME280;74136;51.684;7.862;2024-02-26T06:41:34;99440.44;;;4.19;80.52
84049;BME280;74136;51.684;7.862;2024-02-26T06:44:00;99444.81;;;4.20;80.01
84049;BME280;74136;51.684;7.862;2024-02-26T06:46:28;99444.81;;;4.20;80.15
84049;BME280;74136;51.684;7.862;2024-02-26T06:48:56;99444.38;;;4.23;79.95
84049;BME280;74136;51.684;7.862;2024-02-26T06:51:23;99441.00;;;4.28;79.52
84049;BME280;74136;51.684;7.862;2024-02-26T06:53:49;99446.56;;;4.33;79.08
84049;BME280;74136;51.684;7.862;2024-02-26T06:56:15;99450.53;;;4.37;79.28
84049;BME280;74136;51.684;7.862;2024-02-26T06:58:41;99445.22;;;4.42;78.88
84049;BME280;74136;51.684;7.862;2024-02-26T07:01:08;99444.78;;;4.45;79.04
84049;BME280;74136;51.684;7.862;2024-02-26T07:03:34;99449.78;;;4.48;78.79
84049;BME280;74136;51.684;7.862;2024-02-26T07:06:04;99457.88;;;4.55;78.38
84049;BME280;74136;51.684;7.862;2024-02-26T07:08:30;99457.00;;;4.61;77.68
84049;BME280;74136;51.684;7.862;2024-02-26T07:10:59;99450.84;;;4.65;77.03
84049;BME280;74136;51.684;7.862;2024-02-26T07:13:25;99461.91;;;4.70;76.73
84049;BME280;74136;51.684;7.862;2024-02-26T07:15:51;99463.16;;;4.74;77.05
84049;BME280;74136;51.684;7.862;2024-02-26T07:18:18;99467.91;;;4.79;77.12
84049;BME280;74136;51.684;7.862;2024-02-26T07:20:44;99473.97;;;4.81;76.40
84049;BME280;74136;51.684;7.862;2024-02-26T07:23:10;99473.31;;;4.86;77.03
84049;BME280;74136;51.684;7.862;2024-02-26T07:25:37;99471.38;;;4.86;76.43
84049;BME280;74136;51.684;7.862;2024-02-26T07:28:03;99472.22;;;4.87;76.63
84049;BME280;74136;51.684;7.862;2024-02-26T07:30:29;99470.31;;;4.87;77.03
84049;BME280;74136;51.684;7.862;2024-02-26T07:32:56;99471.97;;;4.88;76.80
84049;BME280;74136;51.684;7.862;2024-02-26T07:35:22;99468.81;;;4.91;76.81
84049;BME280;74136;51.684;7.862;2024-02-26T07:37:49;99483.66;;;4.95;76.81
84049;BME280;74136;51.684;7.862;2024-02-26T07:40:16;99476.69;;;4.99;76.02
84049;BME280;74136;51.684;7.862;2024-02-26T07:42:42;99484.63;;;5.01;75.94
84049;BME280;74136;51.684;7.862;2024-02-26T07:45:09;99481.47;;;5.04;75.89
84049;BME280;74136;51.684;7.862;2024-02-26T07:47:35;99485.63;;;5.06;75.64
84049;BME280;74136;51.684;7.862;2024-02-26T07:50:02;99479.97;;;5.08;75.70
84049;BME280;74136;51.684;7.862;2024-02-26T07:52:28;99481.75;;;5.14;75.94
84049;BME280;74136;51.684;7.862;2024-02-26T07:54:54;99488.44;;;5.18;75.96
84049;BME280;74136;51.684;7.862;2024-02-26T07:57:20;99489.41;;;5.24;75.90
84049;BME280;74136;51.684;7.862;2024-02-26T07:59:47;99485.38;;;5.26;74.59
84049;BME280;74136;51.684;7.862;2024-02-26T08:02:16;99487.19;;;5.32;74.74
84049;BME280;74136;51.684;7.862;2024-02-26T08:04:42;99496.59;;;5.36;74.47
84049;BME280;74136;51.684;7.862;2024-02-26T08:07:08;99496.59;;;5.36;73.71
84049;BME280;74136;51.684;7.862;2024-02-26T08:09:34;99503.47;;;5.39;74.34
84049;BME280;74136;51.684;7.862;2024-02-26T08:12:01;99493.75;;;5.43;73.66
84049;BME280;74136;51.684;7.862;2024-02-26T08:14:27;99508.78;;;5.52;73.89
84049;BME280;74136;51.684;7.862;2024-02-26T08:16:53;99505.34;;;5.57;73.66
84049;BME280;74136;51.684;7.862;2024-02-26T08:19:19;99513.28;;;5.58;73.11
84049;BME280;74136;51.684;7.862;2024-02-26T08:21:46;99522.69;;;5.62;72.87
84049;BME280;74136;51.684;7.862;2024-02-26T08:24:12;99521.38;;;5.65;73.12
84049;BME280;74136;51.684;7.862;2024-02-26T08:26:38;99516.31;;;5.68;72.92
84049;BME280;74136;51.684;7.862;2024-02-26T08:29:04;99525.00;;;5.77;72.78
84049;BME280;74136;51.684;7.862;2024-02-26T08:31:30;99527.41;;;5.85;72.44
84049;BME280;74136;51.684;7.862;2024-02-26T08:33:57;99527.16;;;5.86;71.78
84049;BME280;74136;51.684;7.862;2024-02-26T08:36:24;99520.81;;;5.93;72.40
84049;BME280;74136;51.684;7.862;2024-02-26T08:38:50;99515.84;;;6.01;71.94
84049;BME280;74136;51.684;7.862;2024-02-26T08:41:17;99520.63;;;6.06;71.90
84049;BME280;74136;51.684;7.862;2024-02-26T08:43:43;99526.81;;;6.13;71.73
84049;BME280;74136;51.684;7.862;2024-02-26T08:46:09;99522.66;;;6.22;71.19
84049;BME280;74136;51.684;7.862;2024-02-26T08:48:36;99528.28;;;6.27;71.33
84049;BME280;74136;51.684;7.862;2024-02-26T08:51:09;99522.47;;;6.35;70.62
84049;BME280;74136;51.684;7.862;2024-02-26T08:53:36;99523.78;;;6.44;70.27
84049;BME280;74136;51.684;7.862;2024-02-26T08:56:02;99524.75;;;6.50;70.11
84049;BME280;74136;51.684;7.862;2024-02-26T08:58:28;99514.28;;;6.58;69.10
84049;BME280;74136;51.684;7.862;2024-02-26T09:00:55;99517.50;;;6.67;69.96
84049;BME280;74136;51.684;7.862;2024-02-26T09:03:21;99525.84;;;6.72;68.45
84049;BME280;74136;51.684;7.862;2024-02-26T09:05:48;99529.50;;;6.78;68.80
84049;BME280;74136;51.684;7.862;2024-02-26T09:08:15;99529.88;;;6.81;68.07
84049;BME280;74136;51.684;7.862;2024-02-26T09:10:42;99526.53;;;6.91;68.70
84049;BME280;74136;51.684;7.862;2024-02-26T09:13:08;99534.59;;;6.98;67.88
84049;BME280;74136;51.684;7.862;2024-02-26T09:15:35;99529.50;;;7.01;67.16
84049;BME280;74136;51.684;7.862;2024-02-26T09:18:01;99528.41;;;7.02;66.79
84049;BME280;74136;51.684;7.862;2024-02-26T09:20:29;99530.31;;;7.13;67.55
84049;BME280;74136;51.684;7.862;2024-02-26T09:22:55;99535.53;;;7.26;67.03
84049;BME280;74136;51.684;7.862;2024-02-26T09:25:21;99544.44;;;7.34;66.96
84049;BME280;74136;51.684;7.862;2024-02-26T09:27:48;99535.28;;;7.40;65.90
84049;BME280;74136;51.684;7.862;2024-02-26T09:30:14;99537.25;;;7.44;66.07
84049;BME280;74136;51.684;7.862;2024-02-26T09:32:40;99536.56;;;7.49;65.90
84049;BME280;74136;51.684;7.862;2024-02-26T09:35:07;99529.72;;;7.51;66.22
84049;BME280;74136;51.684;7.862;2024-02-26T09:37:33;99534.50;;;7.56;65.36
84049;BME280;74136;51.684;7.862;2024-02-26T09:40:00;99545.28;;;7.62;65.87
84049;BME280;74136;51.684;7.862;2024-02-26T09:42:26;99537.94;;;7.51;65.39
84049;BME280;74136;51.684;7.862;2024-02-26T09:44:54;99546.44;;;7.50;65.63
84049;BME280;74136;51.684;7.862;2024-02-26T09:47:26;99553.31;;;7.52;65.54
84049;BME280;74136;51.684;7.862;2024-02-26T09:49:53;99567.94;;;7.58;64.67
84049;BME280;74136;51.684;7.862;2024-02-26T09:52:23;99561.25;;;7.65;65.11
84049;BME280;74136;51.684;7.862;2024-02-26T09:54:50;99570.28;;;7.66;64.87
84049;BME280;74136;51.684;7.862;2024-02-26T09:57:16;99566.25;;;7.68;65.26
84049;BME280;74136;51.684;7.862;2024-02-26T09:59:43;99571.00;;;7.73;65.48
84049;BME280;74136;51.684;7.862;2024-02-26T10:02:14;99569.06;;;7.74;65.55
84049;BME280;74136;51.684;7.862;2024-02-26T10:04:41;99576.69;;;7.83;65.04
84049;BME280;74136;51.684;7.862;2024-02-26T10:07:10;99576.69;;;7.83;64.63
84049;BME280;74136;51.684;7.862;2024-02-26T10:09:37;99575.47;;;7.91;65.31
84049;BME280;74136;51.684;7.862;2024-02-26T10:12:04;99582.59;;;7.92;65.23
84049;BME280;74136;51.684;7.862;2024-02-26T10:14:31;99575.34;;;7.86;65.06
84049;BME280;74136;51.684;7.862;2024-02-26T10:16:58;99577.00;;;7.87;65.64
84049;BME280;74136;51.684;7.862;2024-02-26T10:19:28;99579.63;;;7.93;65.28
84049;BME280;74136;51.684;7.862;2024-02-26T10:21:59;99585.09;;;7.93;65.19
84049;BME280;74136;51.684;7.862;2024-02-26T10:24:27;99585.41;;;7.97;66.17
84049;BME280;74136;51.684;7.862;2024-02-26T10:26:57;99584.69;;;8.01;65.55
84049;BME280;74136;51.684;7.862;2024-02-26T10:29:24;99591.22;;;8.12;65.36
84049;BME280;74136;51.684;7.862;2024-02-26T10:31:51;99596.50;;;8.02;65.35
84049;BME280;74136;51.684;7.862;2024-02-26T10:34:18;99589.50;;;7.94;66.07
84049;BME280;74136;51.684;7.862;2024-02-26T10:36:45;99590.22;;;7.90;65.60
84049;BME280;74136;51.684;7.862;2024-02-26T10:39:12;99590.63;;;7.82;66.33
84049;BME280;74136;51.684;7.862;2024-02-26T10:41:43;99595.50;;;7.80;67.07
84049;BME280;74136;51.684;7.862;2024-02-26T10:44:11;99599.44;;;7.84;66.49
84049;BME280;74136;51.684;7.862;2024-02-26T10:46:41;99607.75;;;7.77;66.75
84049;BME280;74136;51.684;7.862;2024-02-26T10:49:13;99612.78;;;7.80;66.37
84049;BME280;74136;51.684;7.862;2024-02-26T10:51:43;99614.81;;;7.73;66.33
84049;BME280;74136;51.684;7.862;2024-02-26T10:54:12;99618.03;;;7.70;66.46
84049;BME280;74136;51.684;7.862;2024-02-26T10:56:41;99622.19;;;7.73;66.94
84049;BME280;74136;51.684;7.862;2024-02-26T10:59:09;99626.56;;;7.74;66.60
84049;BME280;74136;51.684;7.862;2024-02-26T11:01:37;99637.28;;;7.75;66.58
84049;BME280;74136;51.684;7.862;2024-02-26T11:04:04;99632.81;;;7.57;66.72
84049;BME280;74136;51.684;7.862;2024-02-26T11:06:32;99632.69;;;7.52;67.68
84049;BME280;74136;51.684;7.862;2024-02-26T11:09:01;99629.72;;;7.54;66.85
84049;BME280;74136;51.684;7.862;2024-02-26T11:11:29;99634.00;;;7.61;66.98
84049;BME280;74136;51.684;7.862;2024-02-26T11:13:57;99640.03;;;7.75;67.56
84049;BME280;74136;51.684;7.862;2024-02-26T11:16:25;99634.69;;;7.68;67.19
84049;BME280;74136;51.684;7.862;2024-02-26T11:18:53;99644.69;;;7.75;67.22
84049;BME280;74136;51.684;7.862;2024-02-26T11:21:21;99640.38;;;7.79;67.59
84049;BME280;74136;51.684;7.862;2024-02-26T11:24:06;99634.06;;;7.78;66.63
84049;BME280;74136;51.684;7.862;2024-02-26T11:26:36;99638.63;;;7.73;66.70
84049;BME280;74136;51.684;7.862;2024-02-26T11:29:05;99644.44;;;7.76;66.46
84049;BME280;74136;51.684;7.862;2024-02-26T11:31:34;99639.78;;;7.77;66.95
84049;BME280;74136;51.684;7.862;2024-02-26T11:34:02;99645.03;;;7.78;66.76
84049;BME280;74136;51.684;7.862;2024-02-26T11:36:29;99651.34;;;7.79;67.15
84049;BME280;74136;51.684;7.862;2024-02-26T11:38:55;99644.31;;;7.83;66.54
84049;BME280;74136;51.684;7.862;2024-02-26T11:41:22;99641.94;;;7.75;67.07
84049;BME280;74136;51.684;7.862;2024-02-26T11:48:58;99648.25;;;7.63;67.13
84049;BME280;74136;51.684;7.862;2024-02-26T11:51:26;99640.19;;;7.57;67.54
84049;BME280;74136;51.684;7.862;2024-02-26T11:53:54;99649.00;;;7.59;67.69
84049;BME280;74136;51.684;7.862;2024-02-26T11:56:23;99647.34;;;7.58;67.56
84049;BME280;74136;51.684;7.862;2024-02-26T11:59:09;99659.59;;;7.55;68.00
84049;BME280;74136;51.684;7.862;2024-02-26T12:04:24;99669.00;;;7.59;67.92
84049;BME280;74136;51.684;7.862;2024-02-26T12:06:58;99680.06;;;7.64;67.39
84049;BME280;74136;51.684;7.862;2024-02-26T12:09:37;99674.25;;;7.61;67.74
84049;BME280;74136;51.684;7.862;2024-02-26T12:12:05;99679.81;;;7.54;67.59
84049;BME280;74136;51.684;7.862;2024-02-26T12:15:05;99679.50;;;7.51;67.90
84049;BME280;74136;51.684;7.862;2024-02-26T12:17:31;99675.56;;;7.58;68.01
84049;BME280;74136;51.684;7.862;2024-02-26T12:20:09;99686.13;;;7.66;67.51
84049;BME280;74136;51.684;7.862;2024-02-26T12:22:36;99693.16;;;7.62;67.46
84049;BME280;74136;51.684;7.862;2024-02-26T12:25:05;99689.69;;;7.67;67.21
84049;BME280;74136;51.684;7.862;2024-02-26T12:27:32;99684.69;;;7.64;67.65
84049;BME280;74136;51.684;7.862;2024-02-26T12:29:59;99683.00;;;7.75;67.16
84049;BME280;74136;51.684;7.862;2024-02-26T12:32:25;99691.22;;;7.75;67.29
84049;BME280;74136;51.684;7.862;2024-02-26T12:34:52;99695.75;;;7.81;66.83
84049;BME280;74136;51.684;7.862;2024-02-26T12:37:18;99697.22;;;7.72;67.32
84049;BME280;74136;51.684;7.862;2024-02-26T12:39:45;99704.59;;;7.71;66.95
84049;BME280;74136;51.684;7.862;2024-02-26T12:42:12;99711.75;;;7.72;67.25
84049;BME280;74136;51.684;7.862;2024-02-26T12:44:38;99723.63;;;7.78;67.63
84049;BME280;74136;51.684;7.862;2024-02-26T12:47:05;99723.16;;;7.69;67.96
84049;BME280;74136;51.684;7.862;2024-02-26T12:49:31;99721.97;;;7.65;67.28
84049;BME280;74136;51.684;7.862;2024-02-26T12:51:58;99716.16;;;7.61;67.51
84049;BME280;74136;51.684;7.862;2024-02-26T12:54:29;99719.47;;;7.52;67.76
84049;BME280;74136;51.684;7.862;2024-02-26T12:56:57;99736.16;;;7.50;68.40
84049;BME280;74136;51.684;7.862;2024-02-26T12:59:24;99714.81;;;7.52;68.80
84049;BME280;74136;51.684;7.862;2024-02-26T13:01:50;99718.63;;;7.51;69.06
84049;BME280;74136;51.684;7.862;2024-02-26T13:04:17;99706.13;;;7.44;69.47
84049;BME280;74136;51.684;7.862;2024-02-26T13:06:44;99716.84;;;7.45;69.97
84049;BME280;74136;51.684;7.862;2024-02-26T13:09:14;99710.44;;;7.40;70.14
84049;BME280;74136;51.684;7.862;2024-02-26T13:11:40;99714.47;;;7.49;69.76
84049;BME280;74136;51.684;7.862;2024-02-26T13:14:06;99711.84;;;7.42;69.61
84049;BME280;74136;51.684;7.862;2024-02-26T13:16:32;99709.84;;;7.38;69.41